createdAt,value
2019-03-29T00:01:46.424Z,18.67
2019-03-29T00:06:51.178Z,21.27
2019-03-29T00:11:55.998Z,20.57
2019-03-29T00:17:00.747Z,21.48
2019-03-29T00:22:05.507Z,21.10
2019-03-29T00:27:10.336Z,21.68
2019-03-29T00:32:15.080Z,21.52
2019-03-29T00:37:19.886Z,21.77
2019-03-29T00:42:24.694Z,22.98
2019-03-29T00:47:30.042Z,22.35
2019-03-29T00:52:34.994Z,23.92
2019-03-29T00:57:39.761Z,22.40
2019-03-29T01:02:44.933Z,22.93
2019-03-29T01:07:50.098Z,23.65
2019-03-29T01:12:55.000Z,24.40
2019-03-29T01:17:59.819Z,24.57
2019-03-29T01:23:04.728Z,25.43
2019-03-29T01:28:09.523Z,25.60
2019-03-29T01:33:14.348Z,24.92
2019-03-29T01:38:22.138Z,24.30
2019-03-29T01:43:25.579Z,26.33
2019-03-29T01:48:30.277Z,24.98
2019-03-29T01:53:35.039Z,25.43
2019-03-29T01:58:39.859Z,25.48
2019-03-29T02:03:44.574Z,26.25
2019-03-29T02:08:49.329Z,27.25
2019-03-29T02:13:54.158Z,26.70
2019-03-29T02:18:58.978Z,26.42
2019-03-29T02:24:04.098Z,26.37
2019-03-29T02:29:08.842Z,26.05
2019-03-29T02:34:15.702Z,26.57
2019-03-29T02:39:21.073Z,27.05
2019-03-29T02:44:25.900Z,26.65
2019-03-29T02:49:30.695Z,25.88
2019-03-29T02:54:35.429Z,27.48
2019-03-29T02:59:40.182Z,26.95
2019-03-29T03:04:44.942Z,27.45
2019-03-29T03:09:49.693Z,26.25
2019-03-29T03:14:54.485Z,26.97
2019-03-29T03:19:59.234Z,27.52
2019-03-29T03:25:04.191Z,26.95
2019-03-29T03:30:10.775Z,27.20
2019-03-29T03:35:17.545Z,27.13
2019-03-29T03:40:22.355Z,27.52
2019-03-29T03:45:27.500Z,26.27
2019-03-29T03:50:42.344Z,25.97
2019-03-29T03:55:47.137Z,26.27
2019-03-29T04:00:56.917Z,25.10
2019-03-29T04:06:01.842Z,26.17
2019-03-29T04:11:06.578Z,24.55
2019-03-29T04:16:11.305Z,24.45
2019-03-29T04:21:16.140Z,24.00
2019-03-29T04:26:20.876Z,24.02
2019-03-29T04:31:25.723Z,24.72
2019-03-29T04:36:30.540Z,23.75
2019-03-29T04:41:35.276Z,24.50
2019-03-29T04:46:40.050Z,24.73
2019-03-29T04:51:44.925Z,25.02
2019-03-29T04:56:49.642Z,22.77
2019-03-29T05:01:54.375Z,23.18
2019-03-29T05:06:59.111Z,22.55
2019-03-29T05:12:03.855Z,22.60
2019-03-29T05:17:08.621Z,21.80
2019-03-29T05:22:13.354Z,22.25
2019-03-29T05:27:18.099Z,23.27
2019-03-29T05:32:24.959Z,24.32
2019-03-29T05:37:29.707Z,22.10
2019-03-29T05:42:34.575Z,20.02
2019-03-29T05:47:39.373Z,20.65
2019-03-29T05:52:44.103Z,20.55
2019-03-29T05:57:48.854Z,21.15
2019-03-29T06:02:53.585Z,23.57
2019-03-29T06:07:58.401Z,20.27
2019-03-29T06:13:03.091Z,18.60
2019-03-29T06:18:07.904Z,17.98
2019-03-29T06:23:12.665Z,18.20
2019-03-29T06:28:17.511Z,17.23
2019-03-29T06:33:23.173Z,17.48
2019-03-29T06:38:29.819Z,17.27
2019-03-29T06:43:34.585Z,16.42
2019-03-29T06:48:39.349Z,15.30
2019-03-29T06:53:47.471Z,16.00
2019-03-29T06:58:52.417Z,14.20
2019-03-29T07:03:57.172Z,14.63
2019-03-29T07:09:01.939Z,14.25
2019-03-29T07:14:06.714Z,13.50
2019-03-29T07:19:11.465Z,13.75
2019-03-29T07:24:16.190Z,13.53
2019-03-29T07:29:21.006Z,13.30
2019-03-29T07:34:25.736Z,13.20
2019-03-29T07:39:30.454Z,13.00
2019-03-29T07:44:35.333Z,12.90
2019-03-29T07:49:39.398Z,13.03
2019-03-29T07:54:44.165Z,13.43
2019-03-29T07:59:50.490Z,14.63
2019-03-29T08:04:55.503Z,13.50
2019-03-29T08:10:03.306Z,14.15
2019-03-29T08:15:09.287Z,14.00
2019-03-29T08:20:38.028Z,14.30
2019-03-29T08:25:19.272Z,14.25
2019-03-29T08:30:24.037Z,18.48
2019-03-29T08:35:28.787Z,18.15
2019-03-29T08:40:34.702Z,17.45
2019-03-29T08:45:39.467Z,17.80
2019-03-29T08:50:44.287Z,18.10
2019-03-29T08:55:49.116Z,17.82
2019-03-29T09:00:53.085Z,19.62
2019-03-29T09:05:58.000Z,20.60
2019-03-29T09:11:03.078Z,20.57
2019-03-29T09:16:07.927Z,18.87
2019-03-29T09:21:12.700Z,20.12
2019-03-29T09:26:17.494Z,19.20
2019-03-29T09:31:22.240Z,18.25
2019-03-29T09:36:26.993Z,17.30
2019-03-29T09:41:31.783Z,18.70
2019-03-29T09:46:36.544Z,15.83
2019-03-29T09:51:41.358Z,16.93
2019-03-29T09:56:48.325Z,15.55
2019-03-29T10:01:54.263Z,14.87
2019-03-29T10:06:59.471Z,13.00
2019-03-29T10:12:04.222Z,14.10
2019-03-29T10:17:08.299Z,14.10
2019-03-29T10:22:13.071Z,14.93
2019-03-29T10:27:19.183Z,15.00
2019-03-29T10:32:24.105Z,15.03
2019-03-29T10:37:28.960Z,14.05
2019-03-29T10:42:33.691Z,13.28
2019-03-29T10:47:43.592Z,12.03
2019-03-29T10:52:45.469Z,10.10
2019-03-29T10:57:50.328Z,9.98
2019-03-29T11:02:55.196Z,10.10
2019-03-29T11:08:00.899Z,10.18
2019-03-29T11:13:13.365Z,9.40
2019-03-29T11:18:12.490Z,10.08
2019-03-29T11:23:17.306Z,9.88
2019-03-29T11:28:22.172Z,10.48
2019-03-29T11:33:26.999Z,9.85
2019-03-29T11:38:31.981Z,10.18
2019-03-29T11:43:36.787Z,10.13
2019-03-29T11:48:41.604Z,9.93
2019-03-29T11:53:50.712Z,10.40
2019-03-29T11:58:52.980Z,11.08
2019-03-29T12:03:58.299Z,10.58
2019-03-29T12:09:04.522Z,9.48
2019-03-29T12:14:09.446Z,9.88
2019-03-29T12:19:14.204Z,10.55
2019-03-29T12:24:19.096Z,9.90
2019-03-29T12:29:24.023Z,10.13
2019-03-29T12:34:28.834Z,9.45
2019-03-29T12:39:33.594Z,10.08
2019-03-29T12:44:38.304Z,10.15
2019-03-29T12:49:43.030Z,11.25
2019-03-29T12:54:47.769Z,11.12
2019-03-29T12:59:52.517Z,10.70
2019-03-29T13:04:57.349Z,10.10
2019-03-29T13:10:02.369Z,10.40
2019-03-29T13:15:07.567Z,10.63
2019-03-29T13:20:13.110Z,10.45
2019-03-29T13:25:18.083Z,10.40
2019-03-29T13:30:23.003Z,9.85
2019-03-29T13:35:27.926Z,9.53
2019-03-29T13:40:32.692Z,10.03
2019-03-29T13:45:37.432Z,11.53
2019-03-29T13:50:42.178Z,9.35
2019-03-29T13:55:47.000Z,10.90
2019-03-29T14:00:51.817Z,9.50
2019-03-29T14:05:56.699Z,10.05
2019-03-29T14:11:00.887Z,9.25
2019-03-29T14:16:04.930Z,10.48
2019-03-29T14:21:08.915Z,10.08
2019-03-29T14:26:16.131Z,9.98
2019-03-29T14:31:20.287Z,9.65
2019-03-29T14:36:26.398Z,10.28
2019-03-29T14:41:32.222Z,8.58
2019-03-29T14:46:37.091Z,9.23
2019-03-29T14:51:41.839Z,10.58
2019-03-29T14:56:46.609Z,9.78
2019-03-29T15:01:51.360Z,9.30
2019-03-29T15:06:56.401Z,9.50
2019-03-29T15:12:01.142Z,9.50
2019-03-29T15:17:05.179Z,10.43
2019-03-29T15:22:09.996Z,9.98
2019-03-29T15:27:14.852Z,10.23
2019-03-29T15:32:19.696Z,9.25
2019-03-29T15:37:24.477Z,9.60
2019-03-29T15:42:29.339Z,10.35
2019-03-29T15:47:34.054Z,9.60
2019-03-29T15:52:38.828Z,9.78
2019-03-29T15:57:43.637Z,9.53
2019-03-29T16:02:48.352Z,9.95
2019-03-29T16:07:53.183Z,10.70
2019-03-29T16:12:59.479Z,9.25
2019-03-29T16:18:04.218Z,9.70
2019-03-29T16:23:10.015Z,9.95
2019-03-29T16:28:14.304Z,9.50
2019-03-29T16:33:19.060Z,9.78
2019-03-29T16:38:25.061Z,10.23
2019-03-29T16:43:31.228Z,9.83
2019-03-29T16:48:37.146Z,10.00
2019-03-29T16:53:41.973Z,10.08
2019-03-29T16:58:47.705Z,9.98
2019-03-29T17:03:52.875Z,10.28
2019-03-29T17:08:57.761Z,9.50
2019-03-29T17:14:02.619Z,10.08
2019-03-29T17:19:08.454Z,10.85
2019-03-29T17:24:13.261Z,9.03
2019-03-29T17:29:18.039Z,10.13
2019-03-29T17:34:23.553Z,9.15
2019-03-29T17:39:28.327Z,9.33
2019-03-29T17:44:33.837Z,9.73
2019-03-29T17:49:38.631Z,9.38
2019-03-29T17:54:43.483Z,8.80
2019-03-29T17:59:48.235Z,9.80
2019-03-29T18:04:53.077Z,9.80
2019-03-29T18:10:08.640Z,10.60
2019-03-29T18:15:13.776Z,11.35
2019-03-29T18:20:18.660Z,12.65
2019-03-29T18:25:23.490Z,10.28
2019-03-29T18:30:43.963Z,11.75
2019-03-29T18:35:48.833Z,12.25
2019-03-29T18:40:53.674Z,12.00
2019-03-29T18:45:58.396Z,12.20
2019-03-29T18:51:03.228Z,12.65
2019-03-29T18:56:08.050Z,11.90
2019-03-29T19:01:12.806Z,10.95
2019-03-29T19:06:17.650Z,10.68
2019-03-29T19:11:22.502Z,10.82
2019-03-29T19:16:27.420Z,10.53
2019-03-29T19:21:32.178Z,11.55
2019-03-29T19:26:36.948Z,11.75
2019-03-29T19:31:41.767Z,11.60
2019-03-29T19:36:46.520Z,12.47
2019-03-29T19:41:51.280Z,12.78
2019-03-29T19:46:56.205Z,11.53
2019-03-29T19:52:00.996Z,11.43
2019-03-29T19:57:05.769Z,11.88
2019-03-29T20:02:10.614Z,12.82
2019-03-29T20:07:15.369Z,12.05
2019-03-29T20:12:20.274Z,12.93
2019-03-29T20:17:27.692Z,13.30
2019-03-29T20:22:31.693Z,13.58
2019-03-29T20:27:36.498Z,12.93
2019-03-29T20:32:41.362Z,12.45
2019-03-29T20:37:46.257Z,13.22
2019-03-29T20:42:51.162Z,14.10
2019-03-29T20:47:55.929Z,13.50
2019-03-29T20:53:00.680Z,13.10
2019-03-29T20:58:05.473Z,13.70
2019-03-29T21:03:10.323Z,13.15
2019-03-29T21:08:16.473Z,14.55
2019-03-29T21:13:21.329Z,14.78
2019-03-29T21:18:26.078Z,16.60
2019-03-29T21:23:32.348Z,18.57
2019-03-29T21:28:37.126Z,21.15
2019-03-29T21:33:41.929Z,20.48
2019-03-29T21:38:46.814Z,18.85
2019-03-29T21:43:51.641Z,21.15
2019-03-29T21:48:56.426Z,19.90
2019-03-29T21:54:01.292Z,15.20
2019-03-29T21:59:06.088Z,16.30
2019-03-29T22:04:10.852Z,16.48
2019-03-29T22:09:15.671Z,15.25
2019-03-29T22:14:20.427Z,14.75
2019-03-29T22:19:25.163Z,15.25
2019-03-29T22:24:29.915Z,13.50
2019-03-29T22:29:34.678Z,13.32
2019-03-29T22:34:39.461Z,14.43
2019-03-29T22:39:44.225Z,13.98
2019-03-29T22:44:49.030Z,14.43
2019-03-29T22:49:53.767Z,14.83
2019-03-29T22:54:58.552Z,15.15
2019-03-29T23:00:03.418Z,14.47
2019-03-29T23:05:08.709Z,13.88
2019-03-29T23:10:13.452Z,14.75
2019-03-29T23:15:18.208Z,14.28
2019-03-29T23:20:22.981Z,13.85
2019-03-29T23:25:27.783Z,14.20
2019-03-29T23:30:32.554Z,13.90
2019-03-29T23:35:37.369Z,13.35
2019-03-29T23:40:42.133Z,13.90
2019-03-29T23:45:47.167Z,14.43
2019-03-29T23:50:52.031Z,13.70
2019-03-29T23:55:56.812Z,13.00
